Cochstedt Airport EDBC

Flugplatz Daten

Name: Cochstedt Airport

Ident: EDBC

Lat: 51,85639954

Long: 11,42029953

Platzhöhe: 594 ft

IataCode:

City: Magdeburg

Metar

2017/07/24 15:20
EDBC 241520Z 35006KT 9999 -RA SCT030 BKN065 16/16 Q1007

Taf

Gewünschte Webcam nicht vorhanden? Dann fügen Sie eine hinzu. Sie wird dann so schnell wie möglich freigeschaltet
Url: Title: